Time;durP1;ratioP1;P1;durP2;ratioP2;P2;SDS_P1;SDS_P2;PMS_P1;PMS_P2;Temp;Humidity;BMP_temperature;BMP_pressure;BME280_temperature;BME280_humidity;BME280_pressure;Samples;Min_cycle;Max_cycle;Signal;HPM_P1;HPM_P2
2022/03/01 00:01:44;;;;;;;51.78;21.15;;;3.70;99.90;;;;;;5014285;28;20028;-72
2022/03/01 00:04:09;;;;;;;52.20;21.88;;;3.70;99.90;;;;;;5013878;28;20058;-73
2022/03/01 00:06:35;;;;;;;46.63;20.52;;;3.60;99.90;;;;;;5013932;28;20074;-72
2022/03/01 00:09:00;;;;;;;48.25;20.95;;;3.60;99.90;;;;;;5013819;28;20036;-72
2022/03/01 00:11:26;;;;;;;44.55;20.20;;;3.60;99.90;;;;;;5013913;28;20080;-73
2022/03/01 00:13:52;;;;;;;46.05;20.30;;;3.60;99.90;;;;;;5013804;28;20446;-71
2022/03/01 00:16:18;;;;;;;49.03;22.27;;;3.60;99.90;;;;;;5013812;28;20018;-74
2022/03/01 00:18:44;;;;;;;46.80;20.13;;;3.60;99.90;;;;;;5014225;28;20053;-74
2022/03/01 00:21:10;;;;;;;45.65;19.88;;;3.60;99.90;;;;;;5014083;28;20026;-72
2022/03/01 00:23:35;;;;;;;45.05;20.73;;;3.60;99.90;;;;;;5013645;28;20030;-73
2022/03/01 00:26:01;;;;;;;47.55;20.25;;;3.60;99.90;;;;;;5013651;28;20438;-73
2022/03/01 00:28:27;;;;;;;51.78;20.20;;;3.50;99.90;;;;;;5013746;28;20025;-73
2022/03/01 00:30:52;;;;;;;50.08;20.30;;;3.60;99.90;;;;;;5013562;28;20025;-73
2022/03/01 00:33:18;;;;;;;48.17;19.92;;;3.40;99.90;;;;;;5013623;28;20030;-73
2022/03/01 00:35:43;;;;;;;42.60;19.70;;;3.50;99.90;;;;;;5013246;28;20506;-73
2022/03/01 00:38:09;;;;;;;47.70;20.30;;;3.40;99.90;;;;;;5013471;28;20033;-73
2022/03/01 00:40:34;;;;;;;48.95;19.40;;;3.40;99.90;;;;;;5013292;28;20025;-73
2022/03/01 00:43:00;;;;;;;51.25;20.95;;;3.50;99.90;;;;;;5013253;28;20022;-73
2022/03/01 00:45:26;;;;;;;48.25;20.00;;;3.40;99.90;;;;;;5013140;28;20032;-72
2022/03/01 00:47:51;;;;;;;49.28;21.08;;;3.50;99.90;;;;;;5013617;28;20070;-73
2022/03/01 00:50:17;;;;;;;44.17;19.35;;;3.50;99.90;;;;;;5015001;28;20026;-73
2022/03/01 00:52:42;;;;;;;43.92;20.05;;;3.40;99.90;;;;;;5014056;28;20372;-73
2022/03/01 00:55:08;;;;;;;48.42;21.15;;;3.50;99.90;;;;;;5013946;28;20029;-73
2022/03/01 00:57:34;;;;;;;43.03;18.35;;;3.50;99.90;;;;;;5014063;28;20399;-73
2022/03/01 00:59:59;;;;;;;47.17;19.80;;;3.40;99.90;;;;;;5014357;28;20046;-73
2022/03/01 01:02:25;;;;;;;43.92;19.30;;;3.40;99.90;;;;;;5015782;28;20471;-73
2022/03/01 01:04:51;;;;;;;46.75;19.45;;;3.50;99.90;;;;;;5018979;28;20033;-72
2022/03/01 01:07:16;;;;;;;43.95;19.30;;;3.40;99.90;;;;;;5015562;28;20032;-72
2022/03/01 01:09:42;;;;;;;51.47;20.33;;;3.40;99.90;;;;;;5019279;28;20036;-72
2022/03/01 01:12:09;;;;;;;44.38;19.88;;;3.40;99.90;;;;;;5019633;28;20018;-72
2022/03/01 01:14:34;;;;;;;43.65;18.42;;;3.40;99.90;;;;;;5020212;28;20056;-72
2022/03/01 01:17:00;;;;;;;39.70;18.65;;;3.40;99.90;;;;;;5019620;28;20026;-73
2022/03/01 01:19:25;;;;;;;47.25;18.52;;;3.40;99.90;;;;;;5019577;28;20555;-72
2022/03/01 01:24:35;;;;;;;44.78;18.85;;;3.40;99.90;;;;;;5023066;28;20502;-72
2022/03/01 01:27:01;;;;;;;51.30;19.42;;;3.40;99.90;;;;;;5013307;28;20030;-73
2022/03/01 01:29:26;;;;;;;46.58;19.13;;;3.40;99.90;;;;;;5013330;28;20052;-72
2022/03/01 01:31:52;;;;;;;44.10;18.20;;;3.40;99.90;;;;;;5018053;28;20098;-73
2022/03/01 01:34:17;;;;;;;46.63;20.10;;;3.40;99.90;;;;;;5015008;28;20159;-71
2022/03/01 01:36:43;;;;;;;49.58;19.48;;;3.50;99.90;;;;;;5016478;28;20033;-73
2022/03/01 01:39:08;;;;;;;46.78;19.85;;;3.50;99.90;;;;;;5016584;28;20032;-70
2022/03/01 01:41:34;;;;;;;42.70;17.73;;;3.40;99.90;;;;;;5016499;28;20022;-71
2022/03/01 01:44:04;;;;;;;40.75;18.23;;;3.40;99.90;;;;;;5016336;28;20036;-72
2022/03/01 01:46:30;;;;;;;44.05;18.90;;;3.30;99.90;;;;;;5018713;28;20072;-73
2022/03/01 01:48:56;;;;;;;41.17;18.60;;;3.30;99.90;;;;;;5017112;28;20026;-71
2022/03/01 01:51:23;;;;;;;39.17;17.98;;;3.30;99.90;;;;;;5013305;28;20022;-73
2022/03/01 01:53:49;;;;;;;39.75;18.33;;;3.30;99.90;;;;;;5011413;28;20029;-72
2022/03/01 01:56:14;;;;;;;39.85;17.95;;;3.30;99.90;;;;;;5012186;28;20038;-73
2022/03/01 01:58:40;;;;;;;49.20;18.98;;;3.20;99.90;;;;;;5020219;28;20101;-73
2022/03/01 02:01:05;;;;;;;48.50;18.52;;;3.10;99.90;;;;;;5012016;28;20038;-72
2022/03/01 02:03:31;;;;;;;45.05;19.15;;;3.10;99.90;;;;;;5010664;28;20168;-74
2022/03/01 02:05:56;;;;;;;40.10;18.55;;;3.10;99.90;;;;;;5013504;28;20033;-72
2022/03/01 02:08:29;;;;;;;41.90;18.10;;;3.20;99.90;;;;;;5011861;28;20095;-72
2022/03/01 02:10:55;;;;;;;45.50;19.52;;;3.10;99.90;;;;;;5011787;28;20024;-72
2022/03/01 02:13:20;;;;;;;44.78;19.23;;;2.90;99.90;;;;;;5014475;28;20469;-72
2022/03/01 02:15:47;;;;;;;42.00;18.15;;;3.00;99.90;;;;;;5015677;28;20030;-72
2022/03/01 02:18:13;;;;;;;47.47;18.60;;;2.90;99.90;;;;;;5016150;28;20118;-72
2022/03/01 02:20:39;;;;;;;46.25;18.90;;;2.90;99.90;;;;;;5015785;28;20025;-72
2022/03/01 02:23:05;;;;;;;43.97;19.10;;;2.90;99.90;;;;;;5015628;28;20088;-73
2022/03/01 02:25:30;;;;;;;48.25;20.00;;;2.80;99.90;;;;;;5015265;28;20030;-72
2022/03/01 02:27:56;;;;;;;41.88;17.05;;;2.80;99.90;;;;;;5015806;28;20026;-73
2022/03/01 02:30:21;;;;;;;39.58;17.60;;;2.70;99.90;;;;;;5016121;28;20064;-73
2022/03/01 02:32:48;;;;;;;43.33;17.83;;;2.70;99.90;;;;;;5016646;28;20108;-72
2022/03/01 02:35:13;;;;;;;47.72;18.83;;;2.70;99.90;;;;;;5015548;28;20030;-71
2022/03/01 02:37:40;;;;;;;41.10;17.77;;;2.70;99.90;;;;;;5015607;28;20088;-72
2022/03/01 02:40:06;;;;;;;43.70;18.00;;;2.60;99.90;;;;;;5015437;28;20030;-72
2022/03/01 02:42:31;;;;;;;43.83;17.35;;;2.70;99.90;;;;;;5015249;28;20028;-72
2022/03/01 02:44:58;;;;;;;45.65;18.23;;;2.70;99.90;;;;;;5015266;28;20021;-71
2022/03/01 02:47:23;;;;;;;43.75;18.00;;;2.60;99.90;;;;;;5015193;28;20037;-72
2022/03/01 02:49:50;;;;;;;42.83;18.20;;;2.60;99.90;;;;;;5015221;28;20056;-72
2022/03/01 02:52:16;;;;;;;51.30;18.77;;;2.60;99.90;;;;;;5015124;28;20417;-72
2022/03/01 02:54:41;;;;;;;49.33;18.30;;;2.70;99.90;;;;;;5014993;28;20454;-72
2022/03/01 02:57:07;;;;;;;46.05;17.52;;;2.70;99.90;;;;;;5014919;28;20463;-72
2022/03/01 02:59:33;;;;;;;46.67;18.30;;;2.70;99.90;;;;;;5014969;28;20044;-73
2022/03/01 03:01:59;;;;;;;42.35;18.05;;;2.70;99.90;;;;;;5015244;28;20438;-72
2022/03/01 03:04:24;;;;;;;37.47;16.88;;;2.70;99.90;;;;;;5013891;28;20026;-73
2022/03/01 03:06:51;;;;;;;44.10;17.48;;;2.70;99.90;;;;;;5013453;28;20503;-75
2022/03/01 03:09:17;;;;;;;41.78;16.00;;;2.70;99.90;;;;;;5014431;28;20034;-74
2022/03/01 03:11:43;;;;;;;40.92;16.63;;;2.70;99.90;;;;;;5015206;28;20360;-74
2022/03/01 03:14:09;;;;;;;45.33;17.33;;;2.70;99.90;;;;;;5015044;28;20427;-75
2022/03/01 03:16:34;;;;;;;41.15;17.25;;;2.70;99.90;;;;;;5014882;28;20033;-74
2022/03/01 03:19:00;;;;;;;46.63;16.73;;;2.70;99.90;;;;;;5014723;28;20481;-74
2022/03/01 03:21:25;;;;;;;45.28;17.73;;;2.70;99.90;;;;;;5014702;28;20030;-74
2022/03/01 03:23:51;;;;;;;38.42;17.38;;;2.60;99.90;;;;;;5013546;28;20461;-74
2022/03/01 03:26:16;;;;;;;41.78;17.45;;;2.60;99.90;;;;;;5013589;28;20088;-75
2022/03/01 03:28:42;;;;;;;43.03;18.48;;;2.60;99.90;;;;;;5015127;28;20437;-75
2022/03/01 03:31:07;;;;;;;41.42;17.50;;;2.60;99.90;;;;;;5014703;28;20025;-74
2022/03/01 03:33:33;;;;;;;43.42;19.05;;;2.50;99.90;;;;;;5014622;28;20030;-75
2022/03/01 03:35:59;;;;;;;41.40;17.50;;;;;;;;;;5014421;28;20390;-75
2022/03/01 03:38:25;;;;;;;41.42;18.05;;;;;;;;;;5014820;28;20472;-75
2022/03/01 03:40:51;;;;;;;40.75;18.25;;;;;;;;;;5015148;28;20109;-76
2022/03/01 03:43:17;;;;;;;46.10;18.35;;;;;;;;;;5014487;28;20376;-76
2022/03/01 03:45:44;;;;;;;44.00;17.58;;;;;;;;;;5014195;28;20052;-77
2022/03/01 03:48:09;;;;;;;45.10;18.15;;;;;;;;;;5014930;28;20018;-76
2022/03/01 03:50:35;;;;;;;46.53;18.15;;;;;;;;;;5014389;28;20475;-76
2022/03/01 03:53:02;;;;;;;43.13;17.15;;;;;;;;;;5014655;28;20427;-77
2022/03/01 03:55:28;;;;;;;39.72;17.88;;;;;;;;;;5013902;28;20479;-74
2022/03/01 03:57:54;;;;;;;40.50;16.65;;;;;;;;;;5014066;28;20403;-75
2022/03/01 04:00:20;;;;;;;39.33;17.80;;;;;;;;;;5014102;28;20135;-73
2022/03/01 04:02:47;;;;;;;41.67;17.95;;;;;;;;;;5013713;28;20476;-74
2022/03/01 04:05:15;;;;;;;43.20;17.92;;;;;;;;;;5013551;28;20084;-73
2022/03/01 04:07:41;;;;;;;41.58;17.88;;;;;;;;;;5013749;28;20018;-73
2022/03/01 04:10:08;;;;;;;41.28;17.48;;;;;;;;;;5013767;28;20506;-73
2022/03/01 04:12:34;;;;;;;41.63;16.58;;;;;;;;;;5014224;28;20101;-75
2022/03/01 04:15:00;;;;;;;46.30;18.23;;;;;;;;;;5014896;28;20549;-73
2022/03/01 04:17:26;;;;;;;47.95;18.73;;;;;;;;;;5018556;28;20108;-73
2022/03/01 04:19:52;;;;;;;45.72;18.23;;;;;;;;;;5017454;28;20060;-74
2022/03/01 04:22:18;;;;;;;43.78;17.52;;;;;;;;;;5012411;28;20036;-74
2022/03/01 04:24:44;;;;;;;44.25;17.15;;;;;;;;;;5014554;28;20029;-74
2022/03/01 04:27:10;;;;;;;48.08;18.20;;;;;;;;;;5018273;28;20029;-74
2022/03/01 04:29:36;;;;;;;56.78;19.98;;;;;;;;;;5018421;28;20079;-74
2022/03/01 04:32:02;;;;;;;44.65;16.80;;;;;;;;;;5021876;28;20034;-74
2022/03/01 04:34:28;;;;;;;50.55;18.08;;;;;;;;;;5013214;28;20434;-74
2022/03/01 04:36:54;;;;;;;42.95;18.90;;;;;;;;;;5012951;28;20029;-74
2022/03/01 04:39:20;;;;;;;39.55;18.13;;;;;;;;;;5013262;28;20379;-73
2022/03/01 04:41:48;;;;;;;46.05;17.20;;;;;;;;;;5013229;28;20037;-74
2022/03/01 04:44:14;;;;;;;48.53;17.30;;;;;;;;;;5013177;28;20026;-74
2022/03/01 04:46:40;;;;;;;44.38;18.15;;;;;;;;;;5013875;28;20095;-73
2022/03/01 04:49:06;;;;;;;49.20;17.98;;;;;;;;;;5013088;28;20113;-74
2022/03/01 04:51:32;;;;;;;49.08;16.67;;;;;;;;;;5013047;28;20049;-74
2022/03/01 04:53:59;;;;;;;43.65;16.58;;;;;;;;;;5013082;28;20021;-74
2022/03/01 04:56:25;;;;;;;38.85;17.23;;;;;;;;;;5015172;28;20407;-73
2022/03/01 04:58:52;;;;;;;40.58;17.35;;;;;;;;;;5012678;28;20022;-74
2022/03/01 05:01:18;;;;;;;46.03;18.05;;;;;;;;;;5011590;28;20539;-72
2022/03/01 05:03:44;;;;;;;42.50;17.70;;;;;;;;;;5012765;28;20415;-74
2022/03/01 05:06:10;;;;;;;43.80;17.52;;;;;;;;;;5012531;28;20022;-73
2022/03/01 05:08:36;;;;;;;44.53;17.38;;;;;;;;;;5012674;28;20026;-73
2022/03/01 05:11:02;;;;;;;43.55;17.73;;;;;;;;;;5012784;28;20108;-73
2022/03/01 05:13:29;;;;;;;47.72;17.80;;;;;;;;;;5013050;28;20104;-73
2022/03/01 05:15:55;;;;;;;44.83;17.42;;;;;;;;;;5012766;28;20030;-72
2022/03/01 05:18:23;;;;;;;43.40;17.23;;;;;;;;;;5012654;28;20365;-74
2022/03/01 05:20:49;;;;;;;49.70;17.48;;;;;;;;;;5012697;28;20033;-74
2022/03/01 05:23:16;;;;;;;44.50;18.15;;;;;;;;;;5012658;28;20135;-73
2022/03/01 05:25:43;;;;;;;42.08;17.50;;;;;;;;;;5012976;28;20486;-73
2022/03/01 05:28:09;;;;;;;52.13;18.10;;;2.50;99.90;;;;;;5012517;28;20022;-73
2022/03/01 05:30:35;;;;;;;52.35;18.80;;;1.80;99.90;;;;;;5013048;28;20028;-73
2022/03/01 05:33:00;;;;;;;43.78;17.40;;;1.70;99.90;;;;;;5023781;28;20057;-74
2022/03/01 05:35:28;;;;;;;44.40;18.00;;;1.70;99.90;;;;;;5012975;28;20026;-73
2022/03/01 05:37:55;;;;;;;47.95;17.30;;;1.70;99.90;;;;;;5013141;28;20392;-73
2022/03/01 05:40:22;;;;;;;39.50;17.55;;;1.60;99.90;;;;;;5016490;28;20018;-73
2022/03/01 05:42:48;;;;;;;43.33;17.88;;;1.70;99.90;;;;;;5015216;28;20026;-75
2022/03/01 05:45:14;;;;;;;45.70;17.58;;;1.70;99.90;;;;;;5011904;28;20080;-75
2022/03/01 05:47:42;;;;;;;43.47;18.08;;;1.60;99.90;;;;;;5012513;28;20058;-74
2022/03/01 05:50:09;;;;;;;44.47;16.92;;;1.60;99.90;;;;;;5001991;28;20387;-74
2022/03/01 05:52:35;;;;;;;52.00;17.80;;;1.60;99.90;;;;;;4993230;28;20026;-74
2022/03/01 05:55:03;;;;;;;49.63;18.02;;;1.60;99.90;;;;;;4993892;28;20027;-74
2022/03/01 05:57:29;;;;;;;47.95;17.42;;;1.60;99.90;;;;;;4991881;28;20126;-75
2022/03/01 05:59:56;;;;;;;41.17;17.77;;;1.60;99.90;;;;;;4994381;28;20492;-75
2022/03/01 06:02:21;;;;;;;48.05;18.25;;;1.60;99.90;;;;;;4996101;28;20053;-75
2022/03/01 06:04:47;;;;;;;47.38;17.80;;;1.50;99.90;;;;;;4993308;28;20030;-75
2022/03/01 06:07:13;;;;;;;44.67;18.30;;;1.60;99.90;;;;;;4992979;28;20023;-74
2022/03/01 06:09:38;;;;;;;49.50;18.13;;;1.50;99.90;;;;;;4994109;28;20058;-74
2022/03/01 06:12:04;;;;;;;48.95;18.65;;;1.50;99.90;;;;;;4992265;28;20014;-74
2022/03/01 06:14:29;;;;;;;42.00;17.88;;;1.50;99.90;;;;;;4992632;28;20325;-75
2022/03/01 06:16:55;;;;;;;52.42;19.17;;;1.50;99.90;;;;;;4992403;28;20034;-74
2022/03/01 06:19:21;;;;;;;46.80;18.85;;;1.50;99.90;;;;;;4991465;28;20030;-75
2022/03/01 06:21:46;;;;;;;52.90;18.60;;;1.50;99.90;;;;;;4992810;28;20033;-74
2022/03/01 06:24:12;;;;;;;48.42;18.77;;;1.50;99.90;;;;;;4992435;28;20484;-74
2022/03/01 06:26:38;;;;;;;44.50;17.00;;;1.60;99.90;;;;;;4993268;28;20133;-74
2022/03/01 06:29:04;;;;;;;46.90;19.10;;;1.50;99.90;;;;;;4995614;28;20044;-76
2022/03/01 06:31:30;;;;;;;39.63;17.23;;;1.50;99.90;;;;;;4999262;28;20022;-76
2022/03/01 06:33:56;;;;;;;53.70;19.13;;;1.50;99.90;;;;;;4996724;28;20025;-75
2022/03/01 06:36:25;;;;;;;52.70;18.90;;;1.50;99.90;;;;;;4996901;28;20360;-77
2022/03/01 06:38:51;;;;;;;47.00;18.70;;;1.50;99.90;;;;;;4994416;28;20030;-76
2022/03/01 06:41:17;;;;;;;47.72;19.08;;;1.50;99.90;;;;;;4998971;28;20108;-77
2022/03/01 06:43:42;;;;;;;46.10;18.27;;;1.50;99.90;;;;;;4992472;28;20034;-75
2022/03/01 06:46:08;;;;;;;49.67;20.05;;;1.50;99.90;;;;;;4992268;28;20026;-75
2022/03/01 06:48:34;;;;;;;51.72;18.75;;;1.60;99.90;;;;;;4992378;28;20392;-75
2022/03/01 06:51:00;;;;;;;43.47;18.35;;;1.60;99.90;;;;;;4994354;28;20026;-75
2022/03/01 06:53:26;;;;;;;49.55;18.58;;;1.60;99.90;;;;;;5003615;28;20033;-75
2022/03/01 06:55:52;;;;;;;45.00;18.55;;;1.70;99.90;;;;;;5005102;28;20087;-75
2022/03/01 06:58:17;;;;;;;48.65;17.52;;;1.70;99.90;;;;;;5009517;28;20097;-76
2022/03/01 07:00:44;;;;;;;47.80;18.48;;;1.70;99.90;;;;;;5016845;28;20030;-75
2022/03/01 07:03:10;;;;;;;43.60;18.65;;;1.70;99.90;;;;;;5007422;28;20030;-76
2022/03/01 07:05:35;;;;;;;46.25;18.13;;;1.90;99.90;;;;;;5007050;28;20024;-78
2022/03/01 07:08:01;;;;;;;59.42;20.23;;;1.90;99.90;;;;;;5006680;28;20027;-74
2022/03/01 07:10:27;;;;;;;49.65;19.00;;;1.90;99.90;;;;;;5007010;28;20029;-75
2022/03/01 07:12:52;;;;;;;43.65;18.40;;;1.90;99.90;;;;;;5001441;28;20026;-75
2022/03/01 07:15:18;;;;;;;52.90;18.70;;;1.90;99.90;;;;;;4996436;28;20736;-76
2022/03/01 07:17:45;;;;;;;44.13;19.25;;;2.00;99.90;;;;;;4996153;28;20039;-77
2022/03/01 07:20:11;;;;;;;45.45;18.48;;;2.00;99.90;;;;;;5006248;28;20475;-73
2022/03/01 07:22:37;;;;;;;51.55;18.10;;;2.10;99.90;;;;;;5015574;28;20108;-74
2022/03/01 07:25:04;;;;;;;46.30;19.25;;;2.10;99.90;;;;;;5015007;28;20032;-74
2022/03/01 07:27:30;;;;;;;51.40;18.98;;;2.20;99.90;;;;;;5014402;28;20014;-75
2022/03/01 07:29:56;;;;;;;52.75;18.88;;;2.30;99.90;;;;;;5016743;28;20033;-77
2022/03/01 07:32:21;;;;;;;41.63;18.48;;;2.30;99.90;;;;;;5019593;28;20024;-77
2022/03/01 07:34:47;;;;;;;47.88;18.50;;;2.30;99.90;;;;;;5014992;28;20022;-76
2022/03/01 07:37:12;;;;;;;42.58;18.70;;;2.40;99.90;;;;;;5013877;28;20510;-77
2022/03/01 07:39:38;;;;;;;45.63;18.77;;;2.40;99.90;;;;;;5015171;28;20025;-77
2022/03/01 07:42:04;;;;;;;54.30;18.73;;;2.40;99.90;;;;;;5017230;28;20040;-75
2022/03/01 07:44:30;;;;;;;46.13;19.70;;;2.50;99.90;;;;;;5015396;28;20026;-77
2022/03/01 07:46:56;;;;;;;45.35;18.83;;;2.50;99.90;;;;;;5014062;28;20022;-76
2022/03/01 07:49:21;;;;;;;48.30;18.95;;;2.60;99.90;;;;;;5013827;28;20096;-76
2022/03/01 07:51:47;;;;;;;52.17;21.40;;;2.70;99.90;;;;;;5013970;28;20200;-75
2022/03/01 07:54:13;;;;;;;52.00;20.02;;;2.70;99.90;;;;;;5014383;28;20033;-74
2022/03/01 07:56:39;;;;;;;43.03;18.35;;;2.80;99.90;;;;;;5012511;28;20057;-73
2022/03/01 07:59:06;;;;;;;49.22;20.15;;;3.00;99.90;;;;;;5013884;28;20104;-73
2022/03/01 08:01:31;;;;;;;46.83;19.50;;;3.10;99.90;;;;;;5019308;28;20029;-75
2022/03/01 08:03:57;;;;;;;47.45;18.58;;;3.10;99.90;;;;;;5016680;28;20065;-73
2022/03/01 08:06:22;;;;;;;45.38;19.92;;;3.40;99.90;;;;;;5013980;28;20030;-73
2022/03/01 08:08:48;;;;;;;51.95;19.98;;;3.50;99.90;;;;;;5014643;28;20097;-74
2022/03/01 08:11:14;;;;;;;56.55;20.48;;;3.60;99.90;;;;;;5016377;28;20029;-74
2022/03/01 08:13:40;;;;;;;45.33;19.45;;;3.70;99.90;;;;;;5020041;28;20022;-74
2022/03/01 08:16:06;;;;;;;51.70;19.70;;;3.90;99.90;;;;;;5016765;28;20036;-73
2022/03/01 08:18:32;;;;;;;51.20;19.48;;;4.10;99.90;;;;;;5013552;28;20141;-74
2022/03/01 08:20:58;;;;;;;43.65;20.15;;;4.20;99.90;;;;;;5014060;28;20459;-74
2022/03/01 08:23:24;;;;;;;48.03;18.60;;;4.20;99.90;;;;;;5013250;28;20040;-75
2022/03/01 08:25:50;;;;;;;46.70;19.00;;;4.30;99.90;;;;;;5013523;28;20029;-75
2022/03/01 08:28:16;;;;;;;44.00;18.88;;;4.20;99.90;;;;;;5013248;28;20022;-74
2022/03/01 08:30:41;;;;;;;49.30;19.98;;;4.20;99.90;;;;;;5012152;28;20137;-73
2022/03/01 08:33:07;;;;;;;43.38;19.33;;;4.10;99.90;;;;;;5014023;28;20555;-73
2022/03/01 08:35:34;;;;;;;43.92;18.95;;;4.30;99.90;;;;;;5013201;28;20502;-73
2022/03/01 08:38:03;;;;;;;44.03;19.50;;;4.60;99.90;;;;;;5013470;28;20422;-74
2022/03/01 08:40:37;;;;;;;49.88;19.15;;;5.00;99.90;;;;;;5013475;28;20454;-74
2022/03/01 08:43:04;;;;;;;48.72;20.15;;;5.50;99.90;;;;;;5013390;28;20038;-74
2022/03/01 08:45:30;;;;;;;44.28;19.23;;;5.90;99.90;;;;;;5012725;28;20034;-72
2022/03/01 08:47:56;;;;;;;42.40;19.27;;;6.20;99.90;;;;;;5012965;28;20101;-74
2022/03/01 08:50:21;;;;;;;43.92;20.02;;;6.30;99.90;;;;;;5013293;28;20514;-73
2022/03/01 08:52:49;;;;;;;44.28;18.98;;;6.40;99.90;;;;;;5013379;28;20026;-73
2022/03/01 08:55:15;;;;;;;46.33;18.55;;;6.80;99.90;;;;;;5013083;28;20032;-74
2022/03/01 08:57:41;;;;;;;43.67;18.52;;;7.30;99.90;;;;;;5013464;28;20051;-74
2022/03/01 09:00:09;;;;;;;44.30;18.52;;;7.60;99.90;;;;;;5014398;28;20109;-74
2022/03/01 09:02:35;;;;;;;44.97;19.10;;;;;;;;;;5014060;28;20022;-73
2022/03/01 09:05:01;;;;;;;39.15;18.30;;;;;;;;;;5012943;28;20026;-74
2022/03/01 09:07:27;;;;;;;35.90;18.45;;;;;;;;;;5012504;28;20018;-74
2022/03/01 09:09:54;;;;;;;46.40;19.45;;;;;;;;;;5012428;28;20394;-74
2022/03/01 09:12:20;;;;;;;39.97;18.40;;;;;;;;;;5018350;28;20026;-74
2022/03/01 09:14:46;;;;;;;39.63;19.17;;;;;;;;;;5018957;28;20034;-74
2022/03/01 09:17:12;;;;;;;36.60;17.63;;;;;;;;;;5014366;28;20034;-73
2022/03/01 09:19:37;;;;;;;39.38;18.60;;;;;;;;;;5012496;28;20213;-73
2022/03/01 09:22:04;;;;;;;37.25;18.33;;;;;;;;;;5012594;28;20034;-75
2022/03/01 09:24:30;;;;;;;35.58;18.23;;;;;;;;;;5013594;28;20038;-76
2022/03/01 09:27:00;;;;;;;44.35;19.02;;;9.00;99.90;;;;;;5012847;28;20030;-77
2022/03/01 09:29:27;;;;;;;37.95;18.38;;;11.70;95.20;;;;;;5012233;28;20022;-74
2022/03/01 09:31:52;;;;;;;36.90;18.30;;;12.10;93.80;;;;;;5012435;28;20550;-75
2022/03/01 09:34:18;;;;;;;35.40;17.27;;;12.50;92.60;;;;;;5012134;28;20112;-74
2022/03/01 09:36:43;;;;;;;34.05;18.17;;;13.10;91.80;;;;;;5012098;28;20033;-74
2022/03/01 09:39:09;;;;;;;47.80;20.98;;;13.00;90.40;;;;;;5013173;28;20213;-74
2022/03/01 09:41:37;;;;;;;34.28;18.45;;;13.30;87.90;;;;;;5012197;28;20026;-74
2022/03/01 09:44:02;;;;;;;38.40;18.60;;;13.80;85.20;;;;;;5014432;28;20036;-74
2022/03/01 09:46:28;;;;;;;34.40;17.20;;;14.30;81.80;;;;;;5012158;28;20483;-75
2022/03/01 09:48:54;;;;;;;39.95;17.90;;;14.20;79.90;;;;;;5012773;28;20534;-75
2022/03/01 09:51:20;;;;;;;41.13;18.55;;;14.00;79.20;;;;;;5012913;28;20472;-75
2022/03/01 09:53:47;;;;;;;40.20;19.55;;;13.60;78.80;;;;;;5014785;28;20088;-75
2022/03/01 09:56:14;;;;;;;44.30;19.17;;;13.30;79.10;;;;;;5013040;28;20596;-75
2022/03/01 09:58:43;;;;;;;43.30;22.30;;;13.10;80.30;;;;;;5011866;28;20092;-75
2022/03/01 10:01:09;;;;;;;37.53;20.23;;;13.20;80.10;;;;;;5012407;28;20353;-75
2022/03/01 10:03:36;;;;;;;40.70;19.45;;;13.00;80.40;;;;;;5012080;28;20037;-75
2022/03/01 10:06:07;;;;;;;39.45;19.65;;;13.40;79.40;;;;;;5012228;28;20086;-77
2022/03/01 10:08:33;;;;;;;45.38;19.65;;;13.80;78.30;;;;;;5011871;28;20121;-75
2022/03/01 10:10:59;;;;;;;41.03;20.77;;;14.00;76.90;;;;;;5012520;28;20447;-76
2022/03/01 10:13:30;;;;;;;37.13;18.13;;;13.90;76.20;;;;;;5016985;28;20070;-77
2022/03/01 10:16:06;;;;;;;37.78;19.25;;;13.70;77.30;;;;;;5012349;28;20033;-74
2022/03/01 10:18:35;;;;;;;40.95;18.42;;;13.50;77.20;;;;;;5011901;28;20080;-74
2022/03/01 10:21:07;;;;;;;38.67;18.73;;;13.70;76.90;;;;;;5020199;28;20086;-75
2022/03/01 10:23:33;;;;;;;37.33;19.63;;;13.90;76.10;;;;;;5016705;28;20029;-75
2022/03/01 10:26:23;;;;;;;39.25;19.55;;;14.10;74.30;;;;;;5015448;28;20053;-75
2022/03/01 10:28:50;;;;;;;40.83;19.33;;;14.10;74.30;;;;;;5012835;28;20026;-74
2022/03/01 10:31:24;;;;;;;40.30;20.50;;;13.80;74.80;;;;;;5012155;28;20691;-74
2022/03/01 10:34:00;;;;;;;42.80;21.02;;;13.10;76.70;;;;;;5016255;28;20520;-74
2022/03/01 10:36:29;;;;;;;41.55;19.67;;;12.50;78.70;;;;;;5016876;28;20026;-73
2022/03/01 10:38:56;;;;;;;39.83;19.20;;;11.90;80.00;;;;;;5018342;28;20029;-74
2022/03/01 10:41:25;;;;;;;38.50;19.45;;;11.70;81.00;;;;;;5017126;28;20030;-74
2022/03/01 10:43:57;;;;;;;39.67;19.35;;;11.70;82.00;;;;;;5019592;28;20034;-73
2022/03/01 10:46:22;;;;;;;43.88;19.38;;;11.70;82.70;;;;;;5018682;28;20065;-75
2022/03/01 10:48:59;;;;;;;46.35;19.70;;;11.70;82.00;;;;;;5019903;28;20018;-75
2022/03/01 10:51:24;;;;;;;42.38;20.48;;;12.40;82.70;;;;;;5019171;28;20049;-75
2022/03/01 10:53:50;;;;;;;36.92;18.95;;;13.60;78.80;;;;;;5015442;28;20030;-75
2022/03/01 10:56:16;;;;;;;37.03;19.40;;;14.80;75.40;;;;;;5018037;28;20475;-74
2022/03/01 10:58:43;;;;;;;41.33;20.13;;;15.70;71.30;;;;;;5018495;28;20075;-74
2022/03/01 11:01:10;;;;;;;39.70;18.98;;;16.10;69.70;;;;;;5016502;28;20037;-74
2022/03/01 11:03:36;;;;;;;38.60;19.33;;;16.70;68.10;;;;;;5016684;28;20030;-74
2022/03/01 11:06:03;;;;;;;34.25;19.08;;;17.30;65.00;;;;;;5016715;28;20041;-74
2022/03/01 11:08:34;;;;;;;36.30;19.08;;;17.40;63.10;;;;;;5017792;28;20152;-77
2022/03/01 11:11:01;;;;;;;33.92;18.48;;;17.50;62.10;;;;;;5016264;28;20383;-75
2022/03/01 11:13:27;;;;;;;34.50;18.85;;;17.60;62.00;;;;;;5016645;28;20105;-74
2022/03/01 11:16:22;;;;;;;38.50;19.67;;;18.40;59.50;;;;;;5015372;28;20037;-75
2022/03/01 11:19:09;;;;;;;37.83;20.15;;;18.30;58.40;;;;;;5013410;28;20026;-74
2022/03/01 11:21:36;;;;;;;33.38;18.73;;;17.30;58.30;;;;;;5014500;28;20065;-74
2022/03/01 11:24:02;;;;;;;36.85;20.38;;;16.60;59.50;;;;;;5014407;28;20026;-74
2022/03/01 11:26:36;;;;;;;39.90;19.67;;;15.80;60.90;;;;;;5015093;28;20068;-74
2022/03/01 11:29:07;;;;;;;;;;;15.50;63.10;;;;;;5020081;28;20072;-74
2022/03/01 11:31:33;;;;;;;39.55;21.08;;;15.10;63.30;;;;;;5015531;28;19909;-74
2022/03/01 11:34:15;;;;;;;44.28;20.35;;;14.70;64.80;;;;;;5013445;28;20498;-75
2022/03/01 11:36:49;;;;;;;42.17;21.85;;;14.20;65.50;;;;;;5014516;28;20033;-73
2022/03/01 11:39:17;;;;;;;41.83;20.13;;;14.20;66.50;;;;;;5015948;28;20565;-73
2022/03/01 11:41:49;;;;;;;37.58;19.48;;;14.50;66.50;;;;;;5018697;28;20066;-72
2022/03/01 11:44:20;;;;;;;38.08;19.15;;;14.70;65.70;;;;;;5015692;28;20069;-73
2022/03/01 11:46:48;;;;;;;38.15;20.20;;;15.00;65.70;;;;;;5014243;28;20022;-73
2022/03/01 11:49:15;;;;;;;38.22;20.38;;;15.30;64.70;;;;;;5015031;28;20022;-72
2022/03/01 11:51:48;;;;;;;37.60;19.02;;;15.40;63.90;;;;;;5018295;28;20022;-74
2022/03/01 11:54:20;;;;;;;37.95;20.27;;;15.50;63.90;;;;;;5019271;28;20053;-74
2022/03/01 11:56:49;;;;;;;40.15;20.70;;;15.20;63.70;;;;;;5014413;28;20509;-74
2022/03/01 11:59:15;;;;;;;38.38;20.40;;;14.80;64.50;;;;;;5038545;23;20055;-77
2022/03/01 12:01:40;;;;;;;39.08;20.67;;;14.50;65.20;;;;;;5035393;28;20038;-75
2022/03/01 12:04:08;;;;;;;41.15;19.33;;;14.30;65.80;;;;;;5024016;28;20513;-77
2022/03/01 12:06:36;;;;;;;44.25;22.50;;;14.10;67.80;;;;;;5026440;28;20029;-79
2022/03/01 12:09:10;;;;;;;47.40;21.00;;;13.60;67.80;;;;;;5023001;28;20029;-77
2022/03/01 12:11:41;;;;;;;42.85;19.80;;;13.30;69.20;;;;;;5017516;28;20021;-78
2022/03/01 12:14:14;;;;;;;41.97;20.33;;;12.90;70.00;;;;;;5000902;28;20030;-77
2022/03/01 12:16:40;;;;;;;39.72;20.15;;;12.80;71.00;;;;;;5018642;28;20018;-78
2022/03/01 12:19:20;;;;;;;43.25;20.85;;;12.50;71.90;;;;;;5020289;28;20033;-77
2022/03/01 12:21:58;;;;;;;46.55;21.55;;;12.20;72.70;;;;;;5022349;28;20025;-77
2022/03/01 12:24:26;;;;;;;52.13;24.33;;;12.00;73.90;;;;;;5005534;28;20053;-77
2022/03/01 12:26:57;;;;;;;46.20;21.63;;;11.80;74.80;;;;;;5021681;28;20045;-76
2022/03/01 12:29:27;;;;;;;42.95;20.33;;;11.60;75.80;;;;;;5022663;28;20045;-76
2022/03/01 12:31:58;;;;;;;41.92;21.13;;;11.50;76.90;;;;;;5022696;28;20022;-77
2022/03/01 12:34:27;;;;;;;43.67;20.27;;;11.30;77.00;;;;;;5020294;28;20037;-77
2022/03/01 12:36:58;;;;;;;49.05;20.45;;;11.20;77.40;;;;;;4998986;28;20479;-77
2022/03/01 12:39:25;;;;;;;47.13;21.70;;;11.10;77.80;;;;;;5000024;28;20025;-75
2022/03/01 12:41:51;;;;;;;41.38;19.35;;;10.90;78.30;;;;;;5019113;28;20025;-78
2022/03/01 12:44:19;;;;;;;37.72;20.65;;;10.80;79.50;;;;;;5023234;28;20030;-77
2022/03/01 12:46:44;;;;;;;45.13;21.13;;;10.70;80.20;;;;;;5022721;28;20459;-76
2022/03/01 12:49:12;;;;;;;44.95;20.30;;;10.50;80.90;;;;;;5005234;28;20093;-77
2022/03/01 12:51:39;;;;;;;44.38;20.65;;;10.40;81.50;;;;;;5026969;28;20025;-76